CheckWX is a tool to help pilots better visualize weather data.  It is not intended as a substitute for an official pre-flight weather briefing.

07:48:21 UTC

KOQN METAR
Brandywine Airport
West Chester, Pennsylvania, USA
Current

13 mins ago

KOQN 230735Z AUTO 00000KT 10SM CLR 21/18 A2997 RMK AO2
Observed
Sep-23 @ 07:35 UTC
Visibility
10 SM
Flight Rules
VFR
Cloud Levels
  • Clear skies
Temperature
21°C / 70°F
Dewpoint
18°C / 64°F
Humidity
83%
Altimeter
29.97" Hg
Pressure
1014.92 hPa
Previous

33 mins ago

KOQN 230715Z AUTO 00000KT 10SM CLR 21/18 A2998 RMK AO2
Observed
Sep-23 @ 07:15 UTC
Visibility
10 SM
Flight Rules
VFR
Cloud Levels
  • Clear skies
Temperature
21°C / 70°F
Dewpoint
18°C / 64°F
Humidity
83%
Altimeter
29.98" Hg
Pressure
1015.22 hPa
Previous

53 mins ago

KOQN 230655Z AUTO 00000KT 10SM CLR 21/18 A2999 RMK AO2
Observed
Sep-23 @ 06:55 UTC
Visibility
10 SM
Flight Rules
VFR
Cloud Levels
  • Clear skies
Temperature
21°C / 70°F
Dewpoint
18°C / 64°F
Humidity
83%
Altimeter
29.99" Hg
Pressure
1015.62 hPa